Time;durP1;ratioP1;P1;durP2;ratioP2;P2;SDS_P1;SDS_P2;PMS_P1;PMS_P2;Temp;Humidity;BMP_temperature;BMP_pressure;BME280_temperature;BME280_humidity;BME280_pressure;Samples;Min_cycle;Max_cycle;Signal;HPM_P1;HPM_P2
2022/11/01 00:00:00;;;;;;;;;;;13.80;99.90;;;;;;5058167;28;19920;-64
2022/11/01 00:02:26;;;;;;;;;;;13.80;99.90;;;;;;5057975;28;19916;-64
2022/11/01 00:04:52;;;;;;;;;;;13.80;99.90;;;;;;5057917;28;20003;-64
2022/11/01 00:07:17;;;;;;;;;;;13.90;99.90;;;;;;5057659;28;19923;-64
2022/11/01 00:09:43;;;;;;;;;;;13.90;99.90;;;;;;5057842;28;20268;-64
2022/11/01 00:12:08;;;;;;;;;;;13.90;99.90;;;;;;5057861;28;19908;-64
2022/11/01 00:14:34;;;;;;;;;;;14.00;99.90;;;;;;5057875;28;19915;-63
2022/11/01 00:17:00;;;;;;;;;;;14.00;99.90;;;;;;5058049;28;20265;-64
2022/11/01 00:19:25;;;;;;;;;;;14.00;99.90;;;;;;5057530;28;19913;-64
2022/11/01 00:21:51;;;;;;;;;;;14.10;99.90;;;;;;5057704;28;19909;-63
2022/11/01 00:24:16;;;;;;;;;;;14.10;99.90;;;;;;5057798;28;19909;-64
2022/11/01 00:26:42;;;;;;;;;;;14.10;99.90;;;;;;5057474;28;19909;-64
2022/11/01 00:29:08;;;;;;;;;;;14.10;99.90;;;;;;5057298;28;19995;-63
2022/11/01 00:31:33;;;;;;;;;;;14.10;99.90;;;;;;5057364;28;19916;-64
2022/11/01 00:34:02;;;;;;;;;;;14.10;99.90;;;;;;5057694;28;19915;-64
2022/11/01 00:36:28;;;;;;;;;;;14.10;99.90;;;;;;5057298;28;20399;-64
2022/11/01 00:38:53;;;;;;;;;;;14.00;99.90;;;;;;5057518;28;19909;-64
2022/11/01 00:41:22;;;;;;;;;;;14.00;99.90;;;;;;5057371;28;19960;-64
2022/11/01 00:43:47;;;;;;;;;;;14.00;99.90;;;;;;5057624;28;20379;-64
2022/11/01 00:46:13;;;;;;;;;;;14.00;99.90;;;;;;5059042;28;19962;-64
2022/11/01 00:48:39;;;;;;;;;;;14.00;99.90;;;;;;5061645;28;19962;-64
2022/11/01 00:51:05;;;;;;;;;;;14.00;99.90;;;;;;5061120;28;19962;-64
2022/11/01 00:53:30;;;;;;;;;;;14.00;99.90;;;;;;5061375;28;19909;-63
2022/11/01 00:56:03;;;;;;;;;;;13.90;99.90;;;;;;5061098;28;19909;-63
2022/11/01 00:58:29;;;;;;;;;;;13.90;99.90;;;;;;5061733;28;20251;-64
2022/11/01 01:00:55;;;;;;;;;;;13.90;99.80;;;;;;5061158;28;19999;-64
2022/11/01 01:03:21;;;;;;;;;;;14.00;99.90;;;;;;5061249;28;20386;-63
2022/11/01 01:05:50;;;;;;;;;;;13.90;99.40;;;;;;5061106;28;19909;-64
2022/11/01 01:08:16;;;;;;;;;;;14.00;99.90;;;;;;5060968;28;19959;-64
2022/11/01 01:10:41;;;;;;;;;;;14.00;99.80;;;;;;5061042;28;19909;-64
2022/11/01 01:13:07;;;;;;;;;;;14.00;99.90;;;;;;5061230;28;20002;-64
2022/11/01 01:15:36;;;;;;;;;;;14.00;99.90;;;;;;5060458;28;20460;-64
2022/11/01 01:18:02;;;;;;;;;;;14.00;99.90;;;;;;5060964;28;19909;-64
2022/11/01 01:20:27;;;;;;;;;;;14.00;99.90;;;;;;5060723;28;19920;-64
2022/11/01 01:22:53;;;;;;;;;;;14.00;99.90;;;;;;5060792;28;19975;-64
2022/11/01 01:25:19;;;;;;;;;;;14.00;99.90;;;;;;5060966;28;20428;-64
2022/11/01 01:27:45;;;;;;;;;;;14.10;99.90;;;;;;5060304;28;19924;-63
2022/11/01 01:30:11;;;;;;;;;;;14.10;99.90;;;;;;5060917;28;19909;-64
2022/11/01 01:32:36;;;;;;;;;;;14.10;99.90;;;;;;5060182;28;19909;-63
2022/11/01 01:35:03;;;;;;;;;;;14.10;99.90;;;;;;5060390;28;19959;-64
2022/11/01 01:37:28;;;;;;;;;;;14.20;99.90;;;;;;5060095;28;19913;-63
2022/11/01 01:39:54;;;;;;;;;;;14.20;99.90;;;;;;5060351;28;19943;-64
2022/11/01 01:42:27;;;;;;;;;;;14.20;99.90;;;;;;5060206;28;20368;-64
2022/11/01 01:44:53;;;;;;;;;;;14.20;99.90;;;;;;5059997;28;20430;-64
2022/11/01 01:47:23;;;;;;;;;;;14.20;99.90;;;;;;5060328;28;19913;-64
2022/11/01 01:49:50;;;;;;;;;;;14.20;99.90;;;;;;5060485;28;19909;-64
2022/11/01 01:52:16;;;;;;;;;;;14.20;99.90;;;;;;5060024;28;19908;-64
2022/11/01 01:54:42;;;;;;;;;;;14.20;99.90;;;;;;5059988;28;20323;-64
2022/11/01 01:57:08;;;;;;;;;;;14.20;99.90;;;;;;5059660;28;19912;-64
2022/11/01 01:59:34;;;;;;;;;;;14.20;99.90;;;;;;5059811;28;19990;-64
2022/11/01 02:01:59;;;;;;;;;;;14.20;99.20;;;;;;5059838;28;19932;-64
2022/11/01 02:04:43;;;;;;;;;;;14.20;99.90;;;;;;5059592;28;19916;-64
2022/11/01 02:07:09;;;;;;;;;;;14.20;99.90;;;;;;5059950;28;19909;-64
2022/11/01 02:09:36;;;;;;;;;;;14.30;99.90;;;;;;5059908;28;19945;-64
2022/11/01 02:12:02;;;;;;;;;;;14.30;99.90;;;;;;5059718;28;19909;-64
2022/11/01 02:14:28;;;;;;;;;;;14.30;99.90;;;;;;5059620;28;19909;-64
2022/11/01 02:16:59;;;;;;;;;;;14.30;99.90;;;;;;5059756;28;19909;-64
2022/11/01 02:19:28;;;;;;;;;;;14.30;99.90;;;;;;5059800;28;19909;-64
2022/11/01 02:22:02;;;;;;;;;;;14.30;99.90;;;;;;5059427;28;19909;-64
2022/11/01 02:24:41;;;;;;;;;;;14.30;99.90;;;;;;5059623;28;20002;-64
2022/11/01 02:27:11;;;;;;;;;;;14.30;99.90;;;;;;5059455;28;20000;-64
2022/11/01 02:29:46;;;;;;;;;;;14.30;99.90;;;;;;5059361;28;19944;-64
2022/11/01 02:32:20;;;;;;;;;;;14.30;99.90;;;;;;5059335;28;19909;-64
2022/11/01 02:34:57;;;;;;;;;;;14.30;99.90;;;;;;5059653;28;19931;-64
2022/11/01 02:37:36;;;;;;;;;;;14.40;99.90;;;;;;5059352;28;20003;-64
2022/11/01 02:40:05;;;;;;;;;;;14.30;99.90;;;;;;5059482;28;19913;-64
2022/11/01 02:42:34;;;;;;;;;;;14.40;99.90;;;;;;5059074;28;20382;-64
2022/11/01 02:45:27;;;;;;;;;;;14.30;99.90;;;;;;5058967;28;19909;-64
2022/11/01 02:48:00;;;;;;;;;;;14.30;99.90;;;;;;5059439;28;20264;-64
2022/11/01 02:50:26;;;;;;;;;;;14.40;99.90;;;;;;5058922;28;19951;-64
2022/11/01 02:52:53;;;;;;;;;;;14.40;99.90;;;;;;5059225;28;20016;-64
2022/11/01 02:55:28;;;;;;;;;;;14.30;99.90;;;;;;5059146;28;19913;-64
2022/11/01 02:57:55;;;;;;;;;;;14.40;99.90;;;;;;5059045;28;20420;-64
2022/11/01 03:00:22;;;;;;;;;;;14.30;99.90;;;;;;5058895;28;20427;-64
2022/11/01 03:02:51;;;;;;;;;;;14.40;99.90;;;;;;5058833;28;19909;-64
2022/11/01 03:05:16;;;;;;;;;;;14.40;99.90;;;;;;5058686;28;20248;-64
2022/11/01 03:07:44;;;;;;;;;;;14.30;99.90;;;;;;5058567;28;19974;-64
2022/11/01 03:10:09;;;;;;;;;;;14.30;99.90;;;;;;5057887;28;20330;-64
2022/11/01 03:12:40;;;;;;;;;;;14.40;99.90;;;;;;5058452;28;20257;-64
2022/11/01 03:15:19;;;;;;;;;;;14.40;99.90;;;;;;5058623;28;20360;-64
2022/11/01 03:17:54;;;;;;;;;;;14.40;99.90;;;;;;5058624;28;19948;-64
2022/11/01 03:20:46;;;;;;;;;;;14.30;99.90;;;;;;5058489;28;19913;-64
2022/11/01 03:23:24;;;;;;;;;;;14.40;99.90;;;;;;5058383;28;20464;-64
2022/11/01 03:25:52;;;;;;;;;;;14.40;99.90;;;;;;5058475;28;20049;-64
2022/11/01 03:28:22;;;;;;;;;;;14.40;99.90;;;;;;5058414;28;19909;-64
2022/11/01 03:30:54;;;;;;;;;;;14.40;99.90;;;;;;5058179;28;20284;-64
2022/11/01 03:33:21;;;;;;;;;;;14.40;99.90;;;;;;5058336;28;20307;-64
2022/11/01 03:35:48;;;;;;;;;;;14.50;99.90;;;;;;5058376;28;19974;-64
2022/11/01 03:38:15;;;;;;;;;;;14.50;99.90;;;;;;5057997;28;19909;-64
2022/11/01 03:40:43;;;;;;;;;;;14.50;99.90;;;;;;5057928;28;19913;-64
2022/11/01 03:43:10;;;;;;;;;;;14.50;99.90;;;;;;5058169;28;20326;-64
2022/11/01 03:45:37;;;;;;;;;;;14.60;99.90;;;;;;5057996;28;19909;-64
2022/11/01 03:48:04;;;;;;;;;;;14.60;99.90;;;;;;5057749;28;19944;-64
2022/11/01 03:50:30;;;;;;;;;;;14.60;99.90;;;;;;5057865;28;20309;-64
2022/11/01 03:52:56;;;;;;;;;;;14.60;99.90;;;;;;5057895;28;19909;-64
2022/11/01 03:55:22;;;;;;;;;;;14.70;99.90;;;;;;5058017;28;19916;-64
2022/11/01 03:57:48;;;;;;;;;;;14.70;99.90;;;;;;5058043;28;19908;-64
2022/11/01 04:00:15;;;;;;;;;;;14.70;99.90;;;;;;5058001;28;19913;-64
2022/11/01 04:02:42;;;;;;;;;;;14.70;99.90;;;;;;5057774;28;19908;-64
2022/11/01 04:05:08;;;;;;;;;;;14.70;99.90;;;;;;5057552;28;19909;-64
2022/11/01 04:07:33;;;;;;;;;;;14.70;99.90;;;;;;5057706;28;19967;-64
2022/11/01 04:09:59;;;;;;;;;;;14.80;99.90;;;;;;5057721;28;19909;-64
2022/11/01 04:12:25;;;;;;;;;;;14.80;99.90;;;;;;5057496;28;19909;-64
2022/11/01 04:20:35;;;;;;;;;;;14.80;99.90;;;;;;5059316;28;19951;-64
2022/11/01 04:23:04;;;;;;;;;;;14.80;99.90;;;;;;5061680;28;19916;-65
2022/11/01 04:25:30;;;;;;;;;;;14.80;99.90;;;;;;5061671;28;19908;-66
2022/11/01 04:27:56;;;;;;;;;;;14.80;99.90;;;;;;5061676;28;19909;-66
2022/11/01 04:30:26;;;;;;;;;;;14.80;99.90;;;;;;5062158;28;19909;-64
2022/11/01 04:32:51;;;;;;;;;;;14.80;99.90;;;;;;5061521;28;19940;-64
2022/11/01 04:35:17;;;;;;;;;;;14.80;99.90;;;;;;5060180;28;20399;-64
2022/11/01 04:37:43;;;;;;;;;;;14.80;99.90;;;;;;5061499;28;19915;-64
2022/11/01 04:40:08;;;;;;;;;;;14.80;99.90;;;;;;5061321;28;19924;-64
2022/11/01 04:42:34;;;;;;;;;;;14.90;99.90;;;;;;5061306;28;19962;-64
2022/11/01 04:45:00;;;;;;;;;;;14.90;99.90;;;;;;5061321;28;19913;-64
2022/11/01 04:47:26;;;;;;;;;;;14.90;99.90;;;;;;5061487;28;19999;-64
2022/11/01 04:49:52;;;;;;;;;;;14.90;99.90;;;;;;5061639;28;19916;-64
2022/11/01 04:52:17;;;;;;;;;;;14.90;99.90;;;;;;5061166;28;19909;-64
2022/11/01 04:54:43;;;;;;;;;;;14.90;99.90;;;;;;5061499;28;20370;-64
2022/11/01 04:57:21;;;;;;;;;;;14.90;99.90;;;;;;5061310;28;19920;-64
2022/11/01 04:59:47;;;;;;;;;;;14.90;99.90;;;;;;5060748;28;19913;-64
2022/11/01 05:02:13;;;;;;;;;;;14.90;99.90;;;;;;5061279;28;20012;-64
2022/11/01 05:04:39;;;;;;;;;;;14.90;99.90;;;;;;5060946;28;19956;-64
2022/11/01 05:07:04;;;;;;;;;;;14.90;99.90;;;;;;5061057;28;19931;-64
2022/11/01 05:09:30;;;;;;;;;;;14.90;99.90;;;;;;5060879;28;19943;-64
2022/11/01 05:11:55;;;;;;;;;;;14.90;99.90;;;;;;5061142;28;20406;-64
2022/11/01 05:14:21;;;;;;;;;;;14.90;99.90;;;;;;5060996;28;19923;-64
2022/11/01 05:16:47;;;;;;;;;;;14.90;99.90;;;;;;5060757;28;19909;-64
2022/11/01 05:19:12;;;;;;;;;;;14.90;99.90;;;;;;5060666;28;19972;-64
2022/11/01 05:21:38;;;;;;;;;;;14.90;99.90;;;;;;5060762;28;19924;-64
2022/11/01 05:24:03;;;;;;;;;;;14.90;99.90;;;;;;5060815;28;20264;-64
2022/11/01 05:26:29;;;;;;;;;;;14.90;99.90;;;;;;5060548;28;19909;-64
2022/11/01 05:28:55;;;;;;;;;;;14.90;99.90;;;;;;5060971;28;19948;-64
2022/11/01 05:31:20;;;;;;;;;;;14.90;99.90;;;;;;5059989;28;19970;-64
2022/11/01 05:33:46;;;;;;;;;;;14.90;99.90;;;;;;5060582;28;20398;-64
2022/11/01 05:36:11;;;;;;;;;;;14.90;99.90;;;;;;5060391;28;19984;-64
2022/11/01 05:38:37;;;;;;;;;;;14.90;99.90;;;;;;5060788;28;19909;-64
2022/11/01 05:41:03;;;;;;;;;;;14.90;99.90;;;;;;5060148;28;19912;-64
2022/11/01 05:43:29;;;;;;;;;;;14.90;99.90;;;;;;5060401;28;20359;-64
2022/11/01 05:45:54;;;;;;;;;;;14.90;99.90;;;;;;5060197;28;19915;-63
2022/11/01 05:48:20;;;;;;;;;;;14.90;99.90;;;;;;5059943;28;19963;-64
2022/11/01 05:50:45;;;;;;;;;;;14.90;99.90;;;;;;5060121;28;19916;-64
2022/11/01 05:53:11;;;;;;;;;;;14.90;99.90;;;;;;5060346;28;19909;-64
2022/11/01 05:55:38;;;;;;;;;;;14.90;99.90;;;;;;5060230;28;19930;-64
2022/11/01 05:58:04;;;;;;;;;;;14.90;99.90;;;;;;5060008;28;19916;-64
2022/11/01 06:00:30;;;;;;;;;;;14.90;99.90;;;;;;5059970;28;20011;-64
2022/11/01 06:02:57;;;;;;;;;;;15.00;99.90;;;;;;5060597;28;20006;-64
2022/11/01 06:05:22;;;;;;;;;;;15.00;99.90;;;;;;5059998;28;20295;-64
2022/11/01 06:07:48;;;;;;;;;;;15.00;99.90;;;;;;5060021;28;19999;-64
2022/11/01 06:10:13;;;;;;;;;;;15.00;99.90;;;;;;5060203;28;19915;-64
2022/11/01 06:12:39;;;;;;;;;;;15.00;99.90;;;;;;5060079;28;19909;-64
2022/11/01 06:15:05;;;;;;;;;;;15.00;99.90;;;;;;5060316;28;19974;-63
2022/11/01 06:17:30;;;;;;;;;;;15.00;99.90;;;;;;5059886;28;19915;-64
2022/11/01 06:19:57;;;;;;;;;;;15.00;99.90;;;;;;5060130;28;20399;-63
2022/11/01 06:22:22;;;;;;;;;;;15.00;99.90;;;;;;5059786;28;19908;-64
2022/11/01 06:24:48;;;;;;;;;;;15.10;99.90;;;;;;5059930;28;19916;-63
2022/11/01 06:27:14;;;;;;;;;;;15.00;99.90;;;;;;5059491;28;19916;-63
2022/11/01 06:29:40;;;;;;;;;;;15.10;99.90;;;;;;5059611;28;19909;-63
2022/11/01 06:32:05;;;;;;;;;;;15.10;99.90;;;;;;5059756;28;19915;-63
2022/11/01 06:34:31;;;;;;;;;;;15.10;99.90;;;;;;5059307;28;19908;-63
2022/11/01 06:36:57;;;;;;;;;;;15.10;99.90;;;;;;5059905;28;19999;-64
2022/11/01 06:39:22;;;;;;;;;;;15.10;99.90;;;;;;5059138;28;20288;-63
2022/11/01 06:41:49;;;;;;;;;;;15.10;99.90;;;;;;5059361;28;19909;-63
2022/11/01 06:44:15;;;;;;;;;;;15.10;99.90;;;;;;5058141;28;19909;-63
2022/11/01 06:46:40;;;;;;;;;;;15.10;99.90;;;;;;5059659;28;19934;-64
2022/11/01 06:49:06;;;;;;;;;;;15.10;99.90;;;;;;5059550;28;19909;-63
2022/11/01 06:51:31;;;;;;;;;;;15.10;99.90;;;;;;5059397;28;19909;-63
2022/11/01 06:53:57;;;;;;;;;;;15.10;99.90;;;;;;5059151;28;19909;-63
2022/11/01 06:56:23;;;;;;;;;;;15.20;99.90;;;;;;5059478;28;20351;-63
2022/11/01 06:58:49;;;;;;;;;;;15.20;99.90;;;;;;5059089;28;19913;-63
2022/11/01 07:01:17;;;;;;;;;;;15.20;99.90;;;;;;5058964;28;19913;-63
2022/11/01 07:03:44;;;;;;;;;;;15.20;99.90;;;;;;5059000;28;20277;-63
2022/11/01 07:06:09;;;;;;;;;;;15.20;99.90;;;;;;5059102;28;19909;-63
2022/11/01 07:08:35;;;;;;;;;;;15.20;99.90;;;;;;5058762;28;19969;-63
2022/11/01 07:11:00;;;;;;;;;;;15.20;99.90;;;;;;5058791;28;19915;-63
2022/11/01 07:13:29;;;;;;;;;;;15.20;99.90;;;;;;5058679;28;20483;-63
2022/11/01 07:15:55;;;;;;;;;;;15.20;99.90;;;;;;5058812;28;20008;-64
2022/11/01 07:18:21;;;;;;;;;;;15.20;99.90;;;;;;5058884;28;19940;-64
2022/11/01 07:20:46;;;;;;;;;;;15.20;99.90;;;;;;5058628;28;20371;-63
2022/11/01 07:23:14;;;;;;;;;;;15.20;99.90;;;;;;5058599;28;19913;-64
2022/11/01 07:25:40;;;;;;;;;;;15.30;99.90;;;;;;5058772;28;19908;-63
2022/11/01 07:28:06;;;;;;;;;;;15.30;99.90;;;;;;5058721;28;20422;-64
2022/11/01 07:30:31;;;;;;;;;;;15.30;99.90;;;;;;5057190;28;19909;-64
2022/11/01 07:32:58;;;;;;;;;;;15.30;99.90;;;;;;5058703;28;19912;-64
2022/11/01 07:35:24;;;;;;;;;;;15.40;99.90;;;;;;5058334;28;19909;-64
2022/11/01 07:37:50;;;;;;;;;;;15.30;99.90;;;;;;5058621;28;19909;-63
2022/11/01 07:40:16;;;;;;;;;;;15.40;99.90;;;;;;5058437;28;20368;-63
2022/11/01 07:42:43;;;;;;;;;;;15.40;99.90;;;;;;5058622;28;20004;-63
2022/11/01 07:45:09;;;;;;;;;;;15.40;99.90;;;;;;5058464;28;19913;-63
2022/11/01 07:47:35;;;;;;;;;;;15.40;99.90;;;;;;5058479;28;20008;-64
2022/11/01 07:50:01;;;;;;;;;;;15.40;99.90;;;;;;5058188;28;19944;-64
2022/11/01 07:52:26;;;;;;;;;;;15.40;99.90;;;;;;5058621;28;19909;-64
2022/11/01 07:54:52;;;;;;;;;;;15.40;99.90;;;;;;5057883;28;19913;-65
2022/11/01 07:57:17;;;;;;;;;;;15.40;99.90;;;;;;5058296;28;19909;-65
2022/11/01 07:59:43;;;;;;;;;;;15.40;99.90;;;;;;5058123;28;19913;-64
2022/11/01 08:02:09;;;;;;;;;;;15.40;99.90;;;;;;5058502;28;20003;-65
2022/11/01 08:04:35;;;;;;;;;;;15.40;99.90;;;;;;5058213;28;19948;-65
2022/11/01 08:07:00;;;;;;;;;;;15.40;99.90;;;;;;5058279;28;19940;-65
2022/11/01 08:09:26;;;;;;;;;;;15.40;99.90;;;;;;5058200;28;19909;-65
2022/11/01 08:11:51;;;;;;;;;;;15.30;99.90;;;;;;5058168;28;19955;-65
2022/11/01 08:14:17;;;;;;;;;;;15.30;99.90;;;;;;5057996;28;19916;-65
2022/11/01 08:16:43;;;;;;;;;;;15.20;99.90;;;;;;5057860;28;19909;-65
2022/11/01 08:19:09;;;;;;;;;;;15.20;99.90;;;;;;5058143;28;20006;-64
2022/11/01 08:21:35;;;;;;;;;;;15.20;99.90;;;;;;5057996;28;19976;-64
2022/11/01 08:24:00;;;;;;;;;;;15.20;99.90;;;;;;5058078;28;20445;-65
2022/11/01 08:26:26;;;;;;;;;;;15.20;99.90;;;;;;5058019;28;19955;-64
2022/11/01 08:28:52;;;;;;;;;;;15.20;99.90;;;;;;5058048;28;20312;-65
2022/11/01 08:31:17;;;;;;;;;;;15.20;99.90;;;;;;5057776;28;20277;-65
2022/11/01 08:33:44;;;;;;;;;;;15.20;99.90;;;;;;5058047;28;19913;-64
2022/11/01 08:36:09;;;;;;;;;;;15.20;99.90;;;;;;5057920;28;19913;-65
2022/11/01 08:38:35;;;;;;;;;;;15.30;99.90;;;;;;5057880;28;19934;-64
2022/11/01 08:41:01;;;;;;;;;;;15.30;99.90;;;;;;5057633;28;19912;-64
2022/11/01 08:43:26;;;;;;;;;;;15.30;99.90;;;;;;5058004;28;20373;-64
2022/11/01 08:45:52;;;;;;;;;;;15.30;99.90;;;;;;5057894;28;19909;-64
2022/11/01 08:48:18;;;;;;;;;;;15.30;99.90;;;;;;5057585;28;19916;-64
2022/11/01 08:50:43;;;;;;;;;;;15.30;99.90;;;;;;5057892;28;19909;-64
2022/11/01 08:53:11;;;;;;;;;;;15.30;99.90;;;;;;5057544;28;19919;-64
2022/11/01 08:55:36;;;;;;;;;;;15.40;99.90;;;;;;5057727;28;19916;-64
2022/11/01 08:58:02;;;;;;;;;;;15.40;99.90;;;;;;5057732;28;20372;-64
2022/11/01 09:00:28;;;;;;;;;;;15.40;99.90;;;;;;5055995;28;19972;-64
2022/11/01 09:02:54;;;;;;;;;;;15.50;99.90;;;;;;5057568;28;20441;-64
2022/11/01 09:05:19;;;;;;;;;;;15.50;99.90;;;;;;5057651;28;19935;-64
2022/11/01 09:07:45;;;;;;;;;;;15.50;99.90;;;;;;5059611;28;19925;-64
2022/11/01 09:10:11;;;;;;;;;;;15.50;99.90;;;;;;5061318;28;20253;-64
2022/11/01 09:12:37;;;;;;;;;;;15.60;99.90;;;;;;5061315;28;19909;-64
2022/11/01 09:15:03;;;;;;;;;;;15.60;99.90;;;;;;5061005;28;19909;-64
2022/11/01 09:17:29;;;;;;;;;;;15.60;99.90;;;;;;5060683;28;19962;-64
2022/11/01 09:19:55;;;;;;;;;;;15.60;99.90;;;;;;5061036;28;19916;-64
2022/11/01 09:22:20;;;;;;;;;;;15.70;99.90;;;;;;5061257;28;20388;-64
2022/11/01 09:24:46;;;;;;;;;;;15.70;99.90;;;;;;5060959;28;20012;-64
2022/11/01 09:27:11;;;;;;;;;;;15.70;99.90;;;;;;5060885;28;19909;-64
2022/11/01 09:29:37;;;;;;;;;;;15.70;99.90;;;;;;5060730;28;20059;-65
2022/11/01 09:32:03;;;;;;;;;;;15.80;99.90;;;;;;5060325;28;20280;-64
2022/11/01 09:34:28;;;;;;;;;;;15.80;99.90;;;;;;5060619;28;19955;-64
2022/11/01 09:36:54;;;;;;;;;;;15.80;99.90;;;;;;5060573;28;19940;-64
2022/11/01 09:39:20;;;;;;;;;;;15.80;99.90;;;;;;5060642;28;19951;-64
2022/11/01 09:42:01;;;;;;;;;;;15.80;99.90;;;;;;5060281;28;19913;-64
2022/11/01 09:44:42;;;;;;;;;;;15.80;99.90;;;;;;5060465;28;20369;-64
2022/11/01 09:47:15;;;;;;;;;;;15.90;99.90;;;;;;5060580;28;19913;-64
2022/11/01 09:49:43;;;;;;;;;;;15.90;99.90;;;;;;5060441;28;19909;-64
2022/11/01 09:52:14;;;;;;;;;;;16.00;99.90;;;;;;5060538;28;19995;-64
2022/11/01 09:54:40;;;;;;;;;;;16.10;99.90;;;;;;5060553;28;19951;-64
2022/11/01 09:57:05;;;;;;;;;;;16.10;99.90;;;;;;5060412;28;19909;-64
2022/11/01 09:59:37;;;;;;;;;;;16.10;99.90;;;;;;5060311;28;20011;-64
2022/11/01 10:02:16;;;;;;;;;;;16.10;99.90;;;;;;5060109;28;19909;-64
2022/11/01 10:04:57;;;;;;;;;;;16.20;99.90;;;;;;5059994;28;20695;-64
2022/11/01 10:07:43;;;;;;;;;;;16.20;99.90;;;;;;5059740;28;19928;-64
2022/11/01 10:10:08;;;;;;;;;;;16.20;99.90;;;;;;5059375;28;19924;-64
2022/11/01 10:12:34;;;;;;;;;;;16.30;99.90;;;;;;5059766;28;19909;-64
2022/11/01 10:14:59;;;;;;;;;;;16.40;99.90;;;;;;5059592;28;19974;-64
2022/11/01 10:17:31;;;;;;;;;;;16.40;99.90;;;;;;5059483;28;19909;-64
2022/11/01 10:19:57;;;;;;;;;;;16.40;99.90;;;;;;5059270;28;19943;-64
2022/11/01 10:22:33;;;;;;;;;;;16.50;99.90;;;;;;5059381;28;19909;-64
2022/11/01 10:25:18;;;;;;;;;;;16.50;99.90;;;;;;5059574;28;19979;-64
2022/11/01 10:27:46;;;;;;;;;;;16.50;99.90;;;;;;5059282;28;19915;-64
2022/11/01 10:30:14;;;;;;;;;;;16.50;99.90;;;;;;5059349;28;19952;-64
2022/11/01 10:32:48;;;;;;;;;;;16.40;99.90;;;;;;5059016;28;19908;-64
2022/11/01 10:35:18;;;;;;;;;;;16.40;99.90;;;;;;5058962;28;19959;-64
2022/11/01 10:37:47;;;;;;;;;;;16.40;99.90;;;;;;5059139;28;19909;-64
2022/11/01 10:40:19;;;;;;;;;;;16.40;99.90;;;;;;5059226;28;19920;-64
2022/11/01 10:42:44;;;;;;;;;;;16.40;99.90;;;;;;5058117;28;19909;-64
2022/11/01 10:45:14;;;;;;;;;;;16.40;99.90;;;;;;5059127;28;19909;-64
2022/11/01 10:47:42;;;;;;;;;;;16.40;99.90;;;;;;5059203;28;19913;-64
2022/11/01 10:50:10;;;;;;;;;;;16.40;99.90;;;;;;5059281;28;19909;-64
2022/11/01 10:52:42;;;;;;;;;;;16.40;99.90;;;;;;5059365;28;19915;-64
2022/11/01 10:55:11;;;;;;;;;;;16.30;99.90;;;;;;5059391;28;19916;-64
2022/11/01 10:57:40;;;;;;;;;;;16.40;99.90;;;;;;5059065;28;19951;-64
2022/11/01 11:00:12;;;;;;;;;;;16.40;99.90;;;;;;5058743;28;19920;-64
2022/11/01 11:02:41;;;;;;;;;;;16.40;99.90;;;;;;5059056;28;19916;-64
2022/11/01 11:05:12;;;;;;;;;;;16.40;99.90;;;;;;5058906;28;19998;-64
2022/11/01 11:07:38;;;;;;;;;;;16.40;99.90;;;;;;5058692;28;19921;-64
2022/11/01 11:10:10;;;;;;;;;;;16.40;99.90;;;;;;5059227;28;19968;-64
2022/11/01 11:12:36;;;;;;;;;;;16.40;99.90;;;;;;5058957;28;20361;-64
2022/11/01 11:15:09;;;;;;;;;;;16.40;99.90;;;;;;5058701;28;19944;-64
2022/11/01 11:17:37;;;;;;;;;;;16.50;99.90;;;;;;5058713;28;19916;-64
2022/11/01 11:20:05;;;;;;;;;;;16.60;99.90;;;;;;5058790;28;19913;-64
2022/11/01 11:22:35;;;;;;;;;;;16.60;99.90;;;;;;5058615;28;19908;-64
2022/11/01 11:25:00;;;;;;;;;;;16.70;99.90;;;;;;5059007;28;19916;-64
2022/11/01 11:27:27;;;;;;;;;;;16.70;99.90;;;;;;5058480;28;19909;-64
2022/11/01 11:29:58;;;;;;;;;;;16.70;99.90;;;;;;5057978;28;20356;-64
2022/11/01 11:32:25;;;;;;;;;;;16.80;99.90;;;;;;5058634;28;19913;-64
2022/11/01 11:34:57;;;;;;;;;;;16.80;99.90;;;;;;5058904;28;19996;-64
2022/11/01 11:37:23;;;;;;;;;;;16.80;99.90;;;;;;5058539;28;19909;-64
2022/11/01 11:40:07;;;;;;;;;;;16.80;99.90;;;;;;5058361;28;20004;-64
2022/11/01 11:42:33;;;;;;;;;;;16.90;99.90;;;;;;5058526;28;19915;-64
2022/11/01 11:45:12;;;;;;;;;;;17.00;99.90;;;;;;5058497;28;19999;-64
2022/11/01 11:47:38;;;;;;;;;;;17.10;99.90;;;;;;5058216;28;19996;-64
2022/11/01 11:50:19;;;;;;;;;;;17.20;99.90;;;;;;5058002;28;20396;-64
2022/11/01 11:52:46;;;;;;;;;;;17.20;99.90;;;;;;5058094;28;19909;-64
2022/11/01 11:55:33;;;;;;;;;;;17.20;99.90;;;;;;5058335;28;20383;-64
2022/11/01 11:57:59;;;;;;;;;;;17.20;99.90;;;;;;5058040;28;20400;-64
2022/11/01 12:00:26;;;;;;;;;;;17.20;99.90;;;;;;5058000;28;19935;-64
2022/11/01 12:02:51;;;;;;;;;;;17.20;99.90;;;;;;5058326;28;19980;-64
2022/11/01 12:05:18;;;;;;;;;;;17.20;99.90;;;;;;5056845;28;20980;-64
2022/11/01 12:07:45;;;;;;;;;;;17.20;99.90;;;;;;5057822;28;19920;-64
2022/11/01 12:10:29;;;;;;;;;;;17.10;99.90;;;;;;5058175;28;19909;-64
2022/11/01 12:12:55;;;;;;;;;;;17.10;99.90;;;;;;5057888;28;19972;-64
2022/11/01 12:15:31;;;;;;;;;;;17.10;99.90;;;;;;5057743;28;20341;-64
2022/11/01 12:18:08;;;;;;;;;;;17.00;99.90;;;;;;5058141;28;19909;-64
2022/11/01 12:20:35;;;;;;;;;;;17.00;99.90;;;;;;5058028;28;19913;-64
2022/11/01 12:23:05;;;;;;;;;;;16.90;99.90;;;;;;5057894;28;19908;-64
2022/11/01 12:25:32;;;;;;;;;;;16.90;99.90;;;;;;5058055;28;20368;-64
2022/11/01 12:28:02;;;;;;;;;;;16.80;99.90;;;;;;5057836;28;19909;-63
2022/11/01 12:30:30;;;;;;;;;;;16.80;99.90;;;;;;5058028;28;19936;-63
2022/11/01 12:32:56;;;;;;;;;;;16.80;99.90;;;;;;5058061;28;19909;-64
2022/11/01 12:35:25;;;;;;;;;;;16.70;99.90;;;;;;5057949;28;19909;-64
2022/11/01 12:37:50;;;;;;;;;;;16.70;99.90;;;;;;5058205;28;19948;-64
2022/11/01 12:40:34;;;;;;;;;;;16.70;99.90;;;;;;5057823;28;20360;-64
2022/11/01 12:43:18;;;;;;;;;;;16.70;99.90;;;;;;5060573;28;19913;-64
2022/11/01 12:46:00;;;;;;;;;;;16.70;99.90;;;;;;5060317;28;19912;-64
2022/11/01 12:48:38;;;;;;;;;;;16.70;99.90;;;;;;5061711;28;19909;-64
2022/11/01 12:51:24;;;;;;;;;;;16.70;99.90;;;;;;5061275;28;19909;-64
2022/11/01 12:53:50;;;;;;;;;;;16.70;99.90;;;;;;5060869;28;19908;-64
2022/11/01 12:56:16;;;;;;;;;;;16.70;99.90;;;;;;5061419;28;19958;-64
2022/11/01 12:58:42;;;;;;;;;;;16.70;99.90;;;;;;5061323;28;19909;-64
2022/11/01 13:01:15;;;;;;;;;;;16.70;99.90;;;;;;5060841;28;19919;-64
2022/11/01 13:03:40;;;;;;;;;;;16.80;99.90;;;;;;5060983;28;19909;-64
2022/11/01 13:06:18;;;;;;;;;;;16.80;99.90;;;;;;5060787;28;19923;-64
2022/11/01 13:08:49;;;;;;;;;;;16.80;99.90;;;;;;5060773;28;19999;-64
2022/11/01 13:11:21;;;;;;;;;;;16.70;99.90;;;;;;5061012;28;20261;-64
2022/11/01 13:13:50;;;;;;;;;;;16.70;99.90;;;;;;5061214;28;19909;-63
2022/11/01 13:16:42;;;;;;;;;;;16.70;99.90;;;;;;5060985;28;19909;-64
2022/11/01 13:19:13;;;;;;;;;;;16.70;99.90;;;;;;5060456;28;19916;-64
2022/11/01 13:21:42;;;;;;;;;;;16.70;99.90;;;;;;5061297;28;19917;-64
2022/11/01 13:24:25;;;;;;;;;;;16.70;99.90;;;;;;5060779;28;19909;-64
2022/11/01 13:27:02;;;;;;;;;;;16.70;99.90;;;;;;5060737;28;19913;-64
2022/11/01 13:29:40;;;;;;;;;;;16.60;99.90;;;;;;5060850;28;19909;-64
2022/11/01 13:32:08;;;;;;;;;;;16.60;99.90;;;;;;5060842;28;19909;-63
2022/11/01 13:34:52;;;;;;;;;;;16.60;99.90;;;;;;5060810;28;20003;-64
2022/11/01 13:37:38;;;;;;;;;;;16.60;99.80;;;;;;5060538;28;19909;-64
2022/11/01 13:40:14;;;;;;;;;;;16.60;99.80;;;;;;5060560;28;19912;-64
2022/11/01 13:42:42;;;;;;;;;;;16.50;99.90;;;;;;5060646;28;19916;-64
2022/11/01 13:45:16;;;;;;;;;;;16.50;99.90;;;;;;5060766;28;19962;-63
2022/11/01 13:47:50;;;;;;;;;;;16.50;99.90;;;;;;5060755;28;19935;-64
2022/11/01 13:50:34;;;;;;;;;;;16.50;99.90;;;;;;5060501;28;19999;-64
2022/11/01 13:53:05;;;;;;;;;;;16.50;99.90;;;;;;5059816;28;19955;-63
2022/11/01 13:55:31;;;;;;;;;;;16.50;99.90;;;;;;5060237;28;19915;-64
2022/11/01 13:57:57;;;;;;;;;;;16.50;99.90;;;;;;5060278;28;19909;-64
2022/11/01 14:00:59;;;;;;;;;;;16.50;99.90;;;;;;5059959;28;19920;-64
2022/11/01 14:03:35;;;;;;;;;;;16.60;99.90;;;;;;5057838;28;19916;-63
2022/11/01 14:06:10;;;;;;;;;;;16.80;99.90;;;;;;5059581;28;19912;-65
2022/11/01 14:08:42;;;;;;;;;;;17.00;99.90;;;;;;5060018;28;20444;-63
2022/11/01 14:11:12;;;;;;;;;;;17.20;99.90;;;;;;5060208;28;19908;-64
2022/11/01 14:13:46;;;;;;;;;;;17.30;99.90;;;;;;5060022;28;19909;-63
2022/11/01 14:16:15;;;;;;;;;;;17.50;99.90;;;;;;5060083;28;19909;-64
2022/11/01 14:18:59;;;;;;;;;;;17.70;99.90;;;;;;5059783;28;19944;-63
2022/11/01 14:21:30;;;;;;;;;;;17.90;99.90;;;;;;5060109;28;19913;-63
2022/11/01 14:24:04;;;;;;;;;;;18.10;99.90;;;;;;5060065;28;19932;-63
2022/11/01 14:27:00;;;;;;;;;;;18.30;99.90;;;;;;5058780;28;19909;-63
2022/11/01 14:29:25;;;;;;;;;;;18.40;99.90;;;;;;5058999;28;19944;-63